Time;durP1;ratioP1;P1;durP2;ratioP2;P2;SDS_P1;SDS_P2;PMS_P1;PMS_P2;Temp;Humidity;BMP_temperature;BMP_pressure;BME280_temperature;BME280_humidity;BME280_pressure;Samples;Min_cycle;Max_cycle;Signal;HPM_P1;HPM_P2
2022/07/26 00:00:13;;;;;;;;;;;;;;;26.11;43.77;98381.28;5140912;27;20096;-94
2022/07/26 00:02:39;;;;;;;9.68;6.55;;;;;;;26.05;44.04;98365.53;5141695;27;19919;-93
2022/07/26 00:05:07;;;;;;;9.25;6.80;;;;;;;26.02;44.17;98366.69;5140529;27;20039;-93
2022/07/26 00:07:33;;;;;;;9.05;6.60;;;;;;;25.88;44.24;98337.22;5140754;27;20062;-93
2022/07/26 00:09:59;;;;;;;8.23;6.63;;;;;;;25.83;44.17;98324.00;5139861;27;20035;-94
2022/07/26 00:12:29;;;;;;;7.65;6.70;;;;;;;25.97;44.33;98349.06;5140030;27;20445;-93
2022/07/26 00:14:54;;;;;;;8.43;6.70;;;;;;;25.97;44.39;98358.09;5140488;27;20062;-93
2022/07/26 00:17:20;;;;;;;8.18;6.60;;;;;;;25.69;44.67;98332.66;5139228;27;20511;-95
2022/07/26 00:19:46;;;;;;;8.30;6.10;;;;;;;25.66;45.23;98334.81;5140561;27;20042;-94
2022/07/26 00:25:22;;;;;;;7.68;6.50;;;;;;;25.65;45.39;98349.44;5115788;27;20392;-94
2022/07/26 00:27:47;;;;;;;7.80;6.15;;;;;;;25.65;45.20;98353.00;5117093;28;20470;-93
2022/07/26 00:30:13;;;;;;;8.88;6.22;;;;;;;25.45;45.87;98351.34;5116559;28;20063;-93
2022/07/26 00:32:40;;;;;;;8.35;5.90;;;;;;;25.42;46.30;98353.34;5116947;28;20503;-92
2022/07/26 00:35:09;;;;;;;9.23;6.55;;;;;;;25.17;47.13;98343.03;5117111;28;20040;-92
2022/07/26 00:37:35;;;;;;;10.60;6.32;;;;;;;25.14;46.88;98338.75;5115687;28;20488;-93
2022/07/26 00:40:02;;;;;;;7.30;6.60;;;;;;;25.00;47.46;98336.44;5115877;28;20044;-94
2022/07/26 00:42:29;;;;;;;9.25;6.90;;;;;;;24.94;47.61;98342.44;5116335;28;20043;-94
2022/07/26 00:44:55;;;;;;;8.07;6.82;;;;;;;24.85;47.55;98338.72;5114787;28;20028;-93
2022/07/26 00:47:24;;;;;;;9.38;6.80;;;;;;;24.82;47.85;98349.06;5115016;28;20070;-93
2022/07/26 00:49:50;;;;;;;9.13;6.30;;;;;;;24.67;47.95;98332.28;5114145;28;20031;-94
2022/07/26 00:52:16;;;;;;;8.30;6.78;;;;;;;24.69;48.10;98343.88;5115715;28;20130;-93
2022/07/26 00:54:46;;;;;;;9.90;6.72;;;;;;;24.53;48.09;98328.97;5115561;28;20028;-94
2022/07/26 00:57:13;;;;;;;11.27;6.90;;;;;;;24.57;47.83;98334.97;5115097;28;20040;-93
2022/07/26 00:59:40;;;;;;;10.10;6.68;;;;;;;24.56;48.04;98327.84;5116243;28;20036;-94
2022/07/26 01:02:08;;;;;;;10.15;6.57;;;;;;;24.59;47.60;98324.81;5114302;28;20105;-92
2022/07/26 01:04:33;;;;;;;10.18;6.45;;;;;;;24.67;47.46;98330.41;5114888;28;20051;-94
2022/07/26 01:07:03;;;;;;;8.30;6.75;;;;;;;24.56;47.14;98312.38;5115364;28;20040;-92
2022/07/26 01:09:29;;;;;;;9.75;6.53;;;;;;;24.62;47.29;98326.44;5113745;28;20048;-93
2022/07/26 01:11:58;;;;;;;7.85;6.57;;;;;;;24.65;46.94;98317.97;5115484;28;20050;-94
2022/07/26 01:14:25;;;;;;;8.45;6.47;;;;;;;24.63;46.95;98303.66;5114902;28;20040;-93
2022/07/26 01:16:52;;;;;;;8.10;6.70;;;;;;;24.59;47.28;98312.13;5113927;28;20043;-92
2022/07/26 01:19:19;;;;;;;8.40;6.63;;;;;;;24.66;47.54;98328.72;5114606;28;20032;-92
2022/07/26 01:21:46;;;;;;;11.25;6.38;;;;;;;24.53;47.48;98314.53;5115154;28;20043;-94
2022/07/26 01:24:13;;;;;;;8.35;6.80;;;;;;;24.33;48.01;98308.16;5115007;28;20087;-95
2022/07/26 01:26:39;;;;;;;9.70;6.57;;;;;;;24.29;48.47;98314.88;5115703;28;20036;-94
2022/07/26 01:29:05;;;;;;;8.95;6.43;;;;;;;24.24;48.65;98328.88;5115697;28;20040;-94
2022/07/26 01:31:31;;;;;;;8.30;6.72;;;;;;;24.10;49.02;98329.28;5115622;28;20044;-94
2022/07/26 01:33:57;;;;;;;8.00;7.20;;;;;;;23.85;49.73;98306.16;5115016;28;20051;-95
2022/07/26 01:36:23;;;;;;;8.23;7.03;;;;;;;23.86;49.40;98310.59;5102138;28;20442;-94
2022/07/26 01:38:50;;;;;;;9.38;6.85;;;;;;;23.76;49.85;98308.69;5102085;28;20040;-93
2022/07/26 01:41:17;;;;;;;8.68;6.60;;;;;;;23.62;50.17;98311.75;5101513;28;20051;-94
2022/07/26 01:43:43;;;;;;;8.88;6.60;;;;;;;23.50;50.57;98302.81;5101512;28;20480;-93
2022/07/26 01:46:09;;;;;;;9.45;6.57;;;;;;;23.49;51.01;98330.97;5101776;28;20068;-94
2022/07/26 01:48:36;;;;;;;7.40;6.55;;;;;;;23.25;51.63;98317.66;5097803;28;20066;-92
2022/07/26 01:51:02;;;;;;;10.45;6.70;;;;;;;23.20;51.64;98309.06;5099062;28;20580;-92
2022/07/26 01:53:28;;;;;;;8.07;6.72;;;;;;;23.26;51.37;98303.09;5099566;28;20131;-93
2022/07/26 01:55:55;;;;;;;8.90;6.90;;;;;;;23.29;51.58;98310.09;5098208;28;20079;-92
2022/07/26 01:58:21;;;;;;;7.78;6.95;;;;;;;23.21;51.46;98299.09;5099345;28;20048;-93
2022/07/26 02:00:49;;;;;;;10.57;6.75;;;;;;;23.14;51.91;98306.91;5100011;28;20044;-92
2022/07/26 02:03:14;;;;;;;8.57;7.13;;;;;;;23.16;51.59;98304.88;5100877;28;20048;-93
2022/07/26 02:05:40;;;;;;;11.85;6.85;;;;;;;23.09;51.89;98292.84;5100457;28;20059;-92
2022/07/26 02:08:06;;;;;;;8.60;6.95;;;;;;;23.04;51.81;98278.84;5100747;28;20047;-94
2022/07/26 02:13:47;;;;;;;8.27;6.97;;;;;;;22.98;52.17;98294.59;5145991;27;20386;-93
2022/07/26 02:16:14;;;;;;;8.77;6.78;;;;;;;22.93;52.60;98286.00;5121699;28;20036;-94
2022/07/26 02:18:41;;;;;;;8.65;6.93;;;;;;;22.99;52.30;98287.34;5123093;28;20040;-93
2022/07/26 02:21:08;;;;;;;8.27;6.70;;;;;;;22.91;52.06;98268.16;5124887;28;20126;-93
2022/07/26 02:23:34;;;;;;;9.40;7.22;;;;;;;22.92;52.08;98281.59;5122784;28;20126;-95
2022/07/26 02:26:09;;;;;;;8.82;7.00;;;;;;;22.99;52.05;98290.06;5120369;28;20048;-94
2022/07/26 02:28:38;;;;;;;9.48;6.97;;;;;;;23.01;51.91;98300.78;5124787;28;20032;-92
2022/07/26 02:31:05;;;;;;;9.18;7.10;;;;;;;22.86;52.21;98273.97;5121337;28;20062;-94
2022/07/26 02:33:31;;;;;;;11.73;7.18;;;;;;;22.84;52.58;98275.09;5121606;28;20042;-93
2022/07/26 02:35:58;;;;;;;9.65;6.90;;;;;;;22.73;53.06;98271.44;5121837;28;20107;-93
2022/07/26 02:38:23;;;;;;;8.30;6.88;;;;;;;22.74;52.92;98272.28;5121849;28;20043;-93
2022/07/26 02:40:51;;;;;;;7.68;6.68;;;;;;;22.66;52.86;98264.84;5127105;28;20126;-93
2022/07/26 02:43:17;;;;;;;8.02;6.57;;;;;;;22.62;52.28;98254.34;5126414;28;20043;-95
2022/07/26 02:45:43;;;;;;;9.82;6.70;;;;;;;22.71;52.85;98273.44;5115053;28;20107;-94
2022/07/26 02:48:10;;;;;;;8.25;7.15;;;;;;;22.77;52.64;98275.63;5130199;28;20044;-94
2022/07/26 02:50:36;;;;;;;8.77;7.03;;;;;;;22.66;52.64;98259.41;5128675;28;20075;-94
2022/07/26 02:53:02;;;;;;;10.07;6.90;;;;;;;22.62;52.70;98247.13;5124446;28;20119;-94
2022/07/26 02:55:27;;;;;;;8.23;7.00;;;;;;;22.72;52.75;98267.00;5119689;28;20040;-92
2022/07/26 02:57:54;;;;;;;8.75;6.82;;;;;;;22.73;52.46;98274.16;5124727;28;20050;-95
2022/07/26 03:00:22;;;;;;;8.77;7.03;;;;;;;22.49;52.85;98247.28;5119647;28;20055;-94
2022/07/26 03:02:50;;;;;;;8.85;7.05;;;;;;;22.53;52.60;98250.56;5124931;28;20059;-95
2022/07/26 03:05:26;;;;;;;9.15;7.18;;;;;;;22.44;52.62;98225.13;5119375;28;20072;-93
2022/07/26 03:07:53;;;;;;;9.05;7.32;;;;;;;22.48;52.99;98242.84;5121778;28;20039;-94
2022/07/26 03:10:18;;;;;;;9.07;7.15;;;;;;;22.37;53.37;98237.47;5118926;28;20044;-95
2022/07/26 03:12:45;;;;;;;8.02;7.05;;;;;;;22.31;53.65;98227.16;5116717;28;20040;-93
2022/07/26 03:15:11;;;;;;;7.90;7.10;;;;;;;22.27;54.10;98239.22;5119704;28;20053;-94
2022/07/26 03:17:37;;;;;;;10.57;7.15;;;;;;;22.40;53.92;98250.75;5122210;28;20047;-94
2022/07/26 03:20:04;;;;;;;10.13;7.05;;;;;;;22.26;54.04;98235.66;5124945;28;20042;-94
2022/07/26 03:22:33;;;;;;;8.35;7.13;;;;;;;22.31;53.60;98244.25;5126573;28;20509;-96
2022/07/26 03:24:59;;;;;;;8.48;7.18;;;;;;;22.24;53.35;98234.94;5110572;28;20284;-94
2022/07/26 03:27:25;;;;;;;9.00;7.00;;;;;;;22.15;53.99;98243.78;5110216;28;20097;-95
2022/07/26 03:29:51;;;;;;;10.68;7.43;;;;;;;22.19;54.14;98256.09;5106740;28;20089;-92
2022/07/26 03:32:17;;;;;;;9.95;7.88;;;;;;;22.12;53.72;98250.34;5108988;28;20033;-92
2022/07/26 03:34:43;;;;;;;11.57;7.38;;;;;;;21.95;54.38;98240.03;5109689;28;20044;-93
2022/07/26 03:37:08;;;;;;;8.20;7.38;;;;;;;21.98;54.17;98249.75;5103290;28;20032;-95
2022/07/26 03:39:37;;;;;;;8.93;7.57;;;;;;;21.90;54.41;98245.84;5105196;28;20536;-93
2022/07/26 03:42:03;;;;;;;10.30;7.22;;;;;;;21.81;55.12;98243.00;5106804;28;20048;-94
2022/07/26 03:44:29;;;;;;;10.73;7.85;;;;;;;21.70;55.68;98265.53;5105951;28;20496;-93
2022/07/26 03:46:54;;;;;;;11.20;7.40;;;;;;;21.69;55.09;98261.97;5104806;28;20050;-94
2022/07/26 03:49:20;;;;;;;8.30;6.97;;;;;;;21.74;55.03;98264.28;5107073;28;20048;-94
2022/07/26 03:51:46;;;;;;;11.13;7.78;;;;;;;21.87;54.89;98278.53;5111271;28;20118;-94
2022/07/26 03:54:12;;;;;;;8.90;7.57;;;;;;;21.97;53.70;98266.97;5108657;28;20028;-92
2022/07/26 03:56:43;;;;;;;8.75;7.00;;;;;;;21.93;54.24;98266.38;5107575;28;20036;-95
2022/07/26 03:59:10;;;;;;;7.82;6.70;;;;;;;21.90;54.41;98278.31;5105612;28;20066;-94
2022/07/26 04:01:40;;;;;;;8.98;7.18;;;;;;;21.90;54.62;98272.91;5112185;28;20105;-94
2022/07/26 04:04:07;;;;;;;9.13;7.22;;;;;;;21.94;54.83;98289.72;5107820;28;20040;-93
2022/07/26 04:06:32;;;;;;;8.43;7.30;;;;;;;21.83;55.01;98276.22;5108167;28;20036;-93
2022/07/26 04:08:58;;;;;;;11.13;7.00;;;;;;;21.85;55.42;98277.81;5104098;28;20097;-93
2022/07/26 04:11:24;;;;;;;9.18;7.38;;;;;;;21.95;55.05;98278.78;5106721;28;20079;-93
2022/07/26 04:13:51;;;;;;;8.60;7.45;;;;;;;21.93;55.25;98266.38;5109512;28;20647;-93
2022/07/26 04:16:19;;;;;;;9.07;6.97;;;;;;;21.87;55.83;98262.31;5109917;28;20047;-93
2022/07/26 04:18:45;;;;;;;10.90;7.32;;;;;;;22.01;55.65;98282.84;5107247;28;20040;-93
2022/07/26 04:21:11;;;;;;;11.95;7.35;;;;;;;22.00;55.50;98274.84;5106113;28;20481;-94
2022/07/26 04:23:37;;;;;;;9.18;7.45;;;;;;;21.89;55.22;98240.53;5104338;28;20032;-93
2022/07/26 04:26:06;;;;;;;12.00;7.30;;;;;;;21.88;55.39;98250.50;5102787;28;20036;-94
2022/07/26 04:28:33;;;;;;;9.45;7.45;;;;;;;21.85;55.90;98249.88;5107443;28;20036;-94
2022/07/26 04:31:02;;;;;;;;;;;;;;;22.05;56.42;98291.56;5107260;28;20040;-95
2022/07/26 04:33:28;;;;;;;10.75;7.43;;;;;;;21.86;56.54;98257.91;5105293;28;19920;-93
2022/07/26 04:35:54;;;;;;;12.82;8.13;;;;;;;21.85;57.32;98260.72;5108419;28;20560;-92
2022/07/26 04:38:20;;;;;;;9.38;7.45;;;;;;;21.91;57.12;98262.94;5108779;28;20143;-94
2022/07/26 04:40:46;;;;;;;11.85;7.50;;;;;;;21.87;57.47;98251.47;5106393;28;20152;-94
2022/07/26 04:43:12;;;;;;;10.27;7.65;;;;;;;22.03;57.57;98285.41;5111971;28;20539;-94
2022/07/26 04:45:38;;;;;;;11.57;7.45;;;;;;;22.06;57.49;98274.34;5106932;28;20036;-93
2022/07/26 04:48:06;;;;;;;8.45;7.15;;;;;;;22.08;57.14;98275.09;5106514;28;20071;-92
2022/07/26 04:50:32;;;;;;;9.13;7.60;;;;;;;22.17;56.93;98284.31;5106944;28;20040;-94
2022/07/26 04:52:58;;;;;;;9.18;7.38;;;;;;;22.19;57.45;98269.63;5106633;28;20043;-92
2022/07/26 04:55:23;;;;;;;9.48;7.75;;;;;;;22.33;56.82;98282.91;5109125;28;20043;-92
2022/07/26 04:57:50;;;;;;;9.65;7.63;;;;;;;22.41;57.84;98289.56;5105529;28;20047;-93
2022/07/26 05:00:22;;;;;;;9.68;7.57;;;;;;;22.32;57.21;98250.56;5106291;28;20048;-94
2022/07/26 05:02:48;;;;;;;10.40;7.70;;;;;;;22.42;56.53;98250.63;5103291;28;20062;-93
2022/07/26 05:05:15;;;;;;;12.20;7.70;;;;;;;22.62;56.52;98281.47;5109235;28;20047;-93
2022/07/26 05:07:44;;;;;;;9.48;7.50;;;;;;;22.61;56.25;98272.47;5110652;28;20047;-95
2022/07/26 05:10:10;;;;;;;10.13;7.18;;;;;;;22.63;56.81;98258.81;5105265;28;20044;-95
2022/07/26 05:12:36;;;;;;;11.77;8.73;;;;;;;23.09;55.65;98263.88;5103596;28;20048;-93
2022/07/26 05:15:03;;;;;;;11.75;7.22;;;;;;;23.67;55.14;98271.47;5108431;28;20160;-94
2022/07/26 05:17:29;;;;;;;10.63;8.35;;;;;;;23.89;53.27;98247.88;5111458;28;20039;-92
2022/07/26 05:19:55;;;;;;;11.10;7.85;;;;;;;24.28;52.93;98247.94;5104781;28;20127;-94
2022/07/26 05:22:22;;;;;;;11.80;8.07;;;;;;;24.74;50.79;98265.44;5106610;28;20192;-94
2022/07/26 05:24:51;;;;;;;10.68;7.70;;;;;;;25.04;49.31;98277.19;5104586;28;20388;-94
2022/07/26 05:27:20;;;;;;;11.02;8.00;;;;;;;25.24;48.80;98275.31;5104377;28;20377;-93
2022/07/26 05:29:47;;;;;;;10.25;7.20;;;;;;;25.31;48.52;98262.81;5106850;28;20047;-92
2022/07/26 05:32:12;;;;;;;9.95;7.32;;;;;;;25.58;48.12;98281.94;5102307;28;20485;-94
2022/07/26 05:34:38;;;;;;;10.90;7.30;;;;;;;25.74;47.56;98288.63;5103155;28;20052;-93
2022/07/26 05:37:05;;;;;;;11.38;7.45;;;;;;;25.69;47.60;98263.72;5100440;28;20044;-93
2022/07/26 05:39:32;;;;;;;9.65;7.60;;;;;;;25.93;47.71;98288.56;5105090;28;20048;-93
2022/07/26 05:42:00;;;;;;;9.35;7.90;;;;;;;25.91;47.32;98273.38;5106039;28;20036;-94
2022/07/26 05:44:26;;;;;;;10.15;7.78;;;;;;;25.98;47.19;98278.09;5103902;28;20488;-92
2022/07/26 05:46:52;;;;;;;10.52;7.50;;;;;;;26.09;46.54;98274.31;5104545;28;20036;-94
2022/07/26 05:49:18;;;;;;;9.82;7.63;;;;;;;26.22;46.40;98279.41;5105348;28;20109;-93
2022/07/26 05:51:44;;;;;;;11.18;8.15;;;;;;;26.16;46.10;98294.47;5105131;28;20123;-92
2022/07/26 05:54:11;;;;;;;13.43;8.07;;;;;;;26.05;46.84;98277.50;5103531;28;20043;-95
2022/07/26 05:56:41;;;;;;;15.68;8.63;;;;;;;26.15;46.34;98275.56;5104076;28;20127;-94
2022/07/26 05:59:07;;;;;;;9.88;7.53;;;;;;;26.35;46.41;98295.38;5100617;28;20040;-94
2022/07/26 06:01:34;;;;;;;9.52;7.60;;;;;;;26.43;46.43;98279.09;5101050;28;20608;-92
2022/07/26 06:04:00;;;;;;;13.35;7.60;;;;;;;26.64;46.36;98289.75;5097780;28;20040;-95
2022/07/26 06:06:26;;;;;;;8.27;7.28;;;;;;;26.78;45.70;98302.88;5099267;28;20044;-95
2022/07/26 06:08:52;;;;;;;12.13;7.47;;;;;;;26.90;45.59;98299.91;5101362;28;20035;-95
2022/07/26 06:11:17;;;;;;;9.60;7.80;;;;;;;26.91;45.65;98299.72;5103368;28;20044;-94
2022/07/26 06:13:45;;;;;;;8.90;7.53;;;;;;;26.83;45.70;98286.88;5095798;28;20131;-93
2022/07/26 06:16:11;;;;;;;7.95;7.15;;;;;;;27.04;45.28;98302.03;5091228;28;21394;-93
2022/07/26 06:18:36;;;;;;;13.73;7.80;;;;;;;27.18;45.07;98314.28;5093558;28;20123;-93
2022/07/26 06:21:02;;;;;;;11.05;7.80;;;;;;;27.28;44.69;98303.28;5095145;28;20066;-93
2022/07/26 06:23:28;;;;;;;9.68;7.40;;;;;;;27.33;44.16;98307.28;5100490;28;20085;-93
2022/07/26 06:25:54;;;;;;;11.70;7.65;;;;;;;27.38;44.31;98307.66;5099732;28;20489;-93
2022/07/26 06:28:20;;;;;;;10.90;7.63;;;;;;;27.33;43.49;98299.09;5097416;28;20040;-94
2022/07/26 06:30:47;;;;;;;12.18;7.78;;;;;;;27.42;43.06;98308.19;5102219;28;20032;-95
2022/07/26 06:33:13;;;;;;;12.95;7.50;;;;;;;27.48;43.45;98302.09;5097838;28;20036;-93
2022/07/26 06:35:41;;;;;;;10.23;7.60;;;;;;;27.61;42.96;98290.75;5102349;28;20521;-94
2022/07/26 06:38:07;;;;;;;11.55;7.28;;;;;;;27.70;42.18;98295.22;5099686;28;20562;-92
2022/07/26 06:40:33;;;;;;;9.55;7.30;;;;;;;27.81;42.45;98305.03;5101338;28;20491;-93
2022/07/26 06:42:59;;;;;;;11.77;7.35;;;;;;;27.97;41.48;98305.13;5100318;28;21295;-93
2022/07/26 06:45:25;;;;;;;10.70;7.28;;;;;;;28.13;41.30;98306.22;5100673;28;20063;-92
2022/07/26 06:47:52;;;;;;;7.63;6.82;;;;;;;28.20;40.01;98299.09;5102375;28;20040;-93
2022/07/26 06:50:18;;;;;;;7.80;6.82;;;;;;;28.25;40.16;98302.16;5101405;28;20060;-94
2022/07/26 06:52:44;;;;;;;12.52;7.15;;;;;;;28.41;40.11;98307.69;5101113;28;20060;-92
2022/07/26 06:55:11;;;;;;;8.25;7.00;;;;;;;28.42;39.41;98306.66;5107613;28;20047;-92
2022/07/26 06:57:37;;;;;;;13.15;7.57;;;;;;;28.57;39.82;98311.53;5097772;28;20037;-95
2022/07/26 07:00:07;;;;;;;10.27;7.00;;;;;;;28.65;39.41;98300.63;5105444;28;20040;-94
2022/07/26 07:02:32;;;;;;;10.98;7.32;;;;;;;28.75;39.85;98309.50;5099448;28;20036;-92
2022/07/26 07:04:59;;;;;;;12.32;7.43;;;;;;;28.86;39.35;98313.81;5102402;28;20046;-93
2022/07/26 07:07:25;;;;;;;10.90;7.22;;;;;;;28.92;38.54;98315.00;5102716;28;20111;-94
2022/07/26 07:09:51;;;;;;;10.02;7.00;;;;;;;28.96;37.77;98303.56;5102401;28;20486;-91
2022/07/26 07:12:17;;;;;;;8.23;6.85;;;;;;;29.16;37.63;98303.25;5103692;28;20076;-93
2022/07/26 07:14:43;;;;;;;12.90;7.00;;;;;;;29.06;37.37;98292.41;5104253;28;20040;-93
2022/07/26 07:17:09;;;;;;;14.25;6.88;;;;;;;28.79;37.36;98293.63;5098355;28;20036;-92
2022/07/26 07:19:36;;;;;;;10.13;6.50;;;;;;;29.04;37.36;98299.97;5104143;28;20036;-93
2022/07/26 07:22:04;;;;;;;7.22;6.50;;;;;;;29.11;36.84;98302.91;5103052;28;20477;-92
2022/07/26 07:24:30;;;;;;;13.15;7.13;;;;;;;29.24;37.37;98301.38;5103154;28;20039;-94
2022/07/26 07:26:55;;;;;;;10.13;6.80;;;;;;;29.41;37.05;98291.25;5102385;28;20034;-93
2022/07/26 07:29:21;;;;;;;7.85;6.93;;;;;;;29.56;36.36;98296.00;5102772;28;20063;-95
2022/07/26 07:31:47;;;;;;;8.32;6.45;;;;;;;29.57;36.28;98290.38;5102737;28;20062;-92
2022/07/26 07:34:13;;;;;;;7.88;6.63;;;;;;;29.27;36.49;98300.16;5105014;28;20114;-92
2022/07/26 07:36:39;;;;;;;7.88;6.60;;;;;;;29.42;36.84;98298.44;5105793;28;20044;-94
2022/07/26 07:39:06;;;;;;;8.27;6.90;;;;;;;29.76;36.33;98291.91;5100387;28;20392;-93
2022/07/26 07:41:33;;;;;;;8.20;6.47;;;;;;;29.79;36.35;98301.66;5096404;28;20076;-93
2022/07/26 07:43:59;;;;;;;23.45;7.82;;;;;;;29.98;36.19;98294.91;5100449;28;20127;-93
2022/07/26 07:46:24;;;;;;;8.25;6.70;;;;;;;30.19;35.75;98286.94;5098088;28;20563;-94
2022/07/26 07:48:50;;;;;;;9.55;6.70;;;;;;;30.03;37.34;98289.75;5102179;28;20454;-93
2022/07/26 07:51:16;;;;;;;8.88;6.15;;;;;;;30.44;37.42;98298.66;5100191;28;20100;-96
2022/07/26 07:53:42;;;;;;;9.30;7.18;;;;;;;30.10;36.59;98298.97;5101767;28;20028;-93
2022/07/26 07:56:09;;;;;;;7.32;6.63;;;;;;;30.42;36.33;98291.66;5097916;28;20089;-93
2022/07/26 07:58:35;;;;;;;9.60;7.22;;;;;;;30.09;38.72;98295.38;5104119;28;20070;-96
2022/07/26 08:01:00;;;;;;;7.65;6.60;;;;;;;30.30;38.39;98299.44;5103536;28;20040;-94
2022/07/26 08:03:26;;;;;;;8.60;6.95;;;;;;;30.28;37.21;98291.38;5096253;28;20036;-93
2022/07/26 08:05:52;;;;;;;12.32;7.32;;;;;;;30.52;39.44;98286.81;5099849;28;20066;-94
2022/07/26 08:08:18;;;;;;;8.50;7.45;;;;;;;30.62;37.66;98286.56;5101559;28;20123;-93
2022/07/26 08:10:44;;;;;;;8.80;7.40;;;;;;;30.89;37.62;98288.81;5102987;28;20043;-92
2022/07/26 08:13:11;;;;;;;8.48;7.57;;;;;;;31.28;38.69;98270.47;5101650;28;20048;-93
2022/07/26 08:15:37;;;;;;;8.50;7.57;;;;;;;31.46;39.36;98283.88;5096843;28;20051;-95
2022/07/26 08:18:03;;;;;;;10.75;8.07;;;;;;;31.10;39.99;98279.06;5100087;28;21364;-94
2022/07/26 08:20:29;;;;;;;14.15;8.45;;;;;;;30.33;41.99;98279.88;5103431;28;20040;-91
2022/07/26 08:22:54;;;;;;;9.13;7.82;;;;;;;30.55;42.55;98286.44;5100276;28;20059;-93
2022/07/26 08:25:20;;;;;;;9.85;7.80;;;;;;;30.77;41.98;98290.22;5102598;28;20473;-95
2022/07/26 08:27:46;;;;;;;10.13;7.68;;;;;;;30.23;43.08;98288.31;5098964;28;20219;-94
2022/07/26 08:30:13;;;;;;;9.02;7.68;;;;;;;29.84;43.31;98288.25;5100958;28;20039;-92
2022/07/26 08:32:39;;;;;;;11.60;7.70;;;;;;;29.67;43.88;98274.59;5100719;28;20054;-92
2022/07/26 08:35:06;;;;;;;9.15;7.63;;;;;;;30.33;42.50;98279.03;5101284;28;20044;-94
2022/07/26 08:37:32;;;;;;;10.98;7.60;;;;;;;30.78;41.73;98280.97;5098574;28;20056;-94
2022/07/26 08:39:58;;;;;;;10.02;7.93;;;;;;;30.94;41.86;98277.28;5101622;28;20063;-94
2022/07/26 08:42:23;;;;;;;9.60;7.57;;;;;;;31.45;41.49;98280.28;5099266;28;20044;-93
2022/07/26 08:44:50;;;;;;;12.60;8.00;;;;;;;31.32;40.89;98282.78;5099772;28;20093;-94
2022/07/26 08:47:18;;;;;;;9.85;8.02;;;;;;;31.24;41.67;98272.72;5099522;28;20032;-93
2022/07/26 08:49:45;;;;;;;10.20;8.00;;;;;;;31.49;40.88;98278.03;5098841;28;20044;-93
2022/07/26 08:52:13;;;;;;;8.80;7.50;;;;;;;31.77;41.35;98271.88;5096031;28;20074;-92
2022/07/26 08:54:42;;;;;;;10.48;7.80;;;;;;;31.55;41.24;98268.16;5098265;28;20092;-93
2022/07/26 08:57:08;;;;;;;9.65;8.30;;;;;;;31.18;42.39;98264.38;5102349;28;20139;-93
2022/07/26 08:59:34;;;;;;;18.85;8.55;;;;;;;31.56;41.95;98268.00;5097302;28;20552;-91
2022/07/26 09:02:03;;;;;;;8.07;7.25;;;;;;;31.92;41.47;98258.97;5098085;28;20051;-95
2022/07/26 09:04:31;;;;;;;10.43;7.97;;;;;;;31.33;42.13;98266.09;5100973;28;20036;-93
2022/07/26 09:06:59;;;;;;;10.15;7.97;;;;;;;31.77;41.62;98261.72;5097119;28;20118;-94
2022/07/26 09:09:26;;;;;;;12.23;8.18;;;;;;;31.92;41.26;98258.97;5099805;28;20061;-95
2022/07/26 09:11:52;;;;;;;13.00;7.90;;;;;;;31.62;42.85;98259.00;5105115;28;20051;-93
2022/07/26 09:14:18;;;;;;;11.70;8.45;;;;;;;31.58;41.39;98246.66;5097798;28;20074;-93
2022/07/26 09:16:57;;;;;;;13.50;8.32;;;;;;;31.60;42.25;98249.22;5103051;28;20121;-94
2022/07/26 09:19:23;;;;;;;11.43;8.00;;;;;;;32.00;40.64;98258.06;5097006;28;20081;-94
2022/07/26 09:21:51;;;;;;;11.25;8.23;;;;;;;32.34;40.50;98250.03;5101114;28;20496;-93
2022/07/26 09:24:28;;;;;;;;;;;;;;;32.20;39.68;98250.91;5097287;28;20131;-93
2022/07/26 09:26:55;;;;;;;11.30;8.17;;;;;;;31.81;39.69;98259.47;5100522;28;19934;-92
2022/07/26 09:29:21;;;;;;;10.20;7.22;;;;;;;31.67;39.85;98247.44;5095476;28;20288;-92
2022/07/26 09:31:47;;;;;;;9.25;7.25;;;;;;;31.73;40.62;98242.03;5100340;28;20108;-93
2022/07/26 09:34:23;;;;;;;9.10;8.20;;;;;;;31.25;41.35;98249.72;5099471;28;20113;-91
2022/07/26 09:36:52;;;;;;;10.18;7.88;;;;;;;31.60;40.72;98246.47;5096004;28;20136;-92
2022/07/26 09:39:19;;;;;;;11.43;8.55;;;;;;;32.00;40.08;98233.31;5097119;28;20096;-92
2022/07/26 09:41:45;;;;;;;12.95;8.35;;;;;;;32.24;39.73;98243.97;5099553;28;20033;-94
2022/07/26 09:44:20;;;;;;;10.02;7.70;;;;;;;32.39;39.47;98251.38;5096595;28;20038;-94
2022/07/26 09:46:52;;;;;;;8.55;7.55;;;;;;;32.76;36.64;98253.06;5102812;28;20040;-95
2022/07/26 09:49:19;;;;;;;11.38;7.22;;;;;;;32.97;36.64;98243.09;5096028;28;20044;-94
2022/07/26 09:51:46;;;;;;;7.80;6.97;;;;;;;33.27;35.49;98233.66;5095403;28;20048;-96
2022/07/26 09:54:19;;;;;;;10.38;7.22;;;;;;;33.35;34.87;98247.28;5095973;28;20040;-94
2022/07/26 09:56:47;;;;;;;12.52;7.43;;;;;;;33.39;34.78;98238.59;5097289;28;20047;-94
2022/07/26 09:59:14;;;;;;;9.65;7.30;;;;;;;33.21;34.92;98239.94;5096026;28;20046;-93
2022/07/26 10:01:40;;;;;;;10.33;7.80;;;;;;;33.37;35.01;98244.31;5097032;28;20493;-95
2022/07/26 10:04:06;;;;;;;8.90;7.03;;;;;;;33.50;35.05;98224.25;5095401;28;20038;-93
2022/07/26 10:06:32;;;;;;;11.45;7.38;;;;;;;33.68;34.92;98229.28;5097624;28;20438;-93
2022/07/26 10:08:59;;;;;;;8.77;7.15;;;;;;;33.73;33.71;98238.66;5097402;28;20048;-92
2022/07/26 10:11:30;;;;;;;8.67;7.37;;;;;;;33.60;34.37;98233.06;5098165;28;20047;-93
2022/07/26 10:13:57;;;;;;;8.25;7.45;;;;;;;33.75;33.98;98222.75;5097569;28;20035;-95
2022/07/26 10:16:30;;;;;;;10.35;8.10;;;;;;;33.78;33.20;98234.44;5096316;28;20063;-93
2022/07/26 10:18:57;;;;;;;9.45;7.55;;;;;;;33.45;34.09;98227.63;5094981;28;20040;-94
2022/07/26 10:21:25;;;;;;;9.00;7.63;;;;;;;33.83;33.75;98231.91;5096487;28;20123;-92
2022/07/26 10:23:52;;;;;;;9.70;7.18;;;;;;;33.85;33.80;98227.03;5100705;28;20032;-94
2022/07/26 10:26:41;;;;;;;10.23;7.77;;;;;;;33.63;33.77;98224.38;5094779;28;20534;-94
2022/07/26 10:29:22;;;;;;;8.80;7.45;;;;;;;33.77;33.68;98225.31;5091206;28;20047;-93
2022/07/26 10:32:09;;;;;;;9.27;7.50;;;;;;;33.52;33.97;98223.00;5097515;28;20040;-93
2022/07/26 10:34:36;;;;;;;9.77;7.47;;;;;;;33.51;34.10;98224.06;5099444;28;20105;-93
2022/07/26 10:37:03;;;;;;;11.38;7.72;;;;;;;33.88;34.11;98224.72;5105657;28;20167;-92
2022/07/26 10:39:29;;;;;;;9.00;7.90;;;;;;;34.07;33.67;98211.22;5100277;28;20122;-93
2022/07/26 10:42:02;;;;;;;11.15;7.43;;;;;;;34.13;33.60;98218.72;5099834;28;20453;-95
2022/07/26 10:44:29;;;;;;;9.70;7.53;;;;;;;33.60;34.69;98218.44;5102840;28;20400;-93
2022/07/26 10:47:00;;;;;;;11.30;7.10;;;;;;;33.99;33.56;98215.03;5100891;28;20435;-92
2022/07/26 10:49:29;;;;;;;10.82;7.60;;;;;;;33.87;33.54;98206.47;5099636;28;20040;-91
2022/07/26 10:52:05;;;;;;;10.40;7.47;;;;;;;34.04;33.60;98209.72;5101546;28;20166;-93
2022/07/26 10:54:30;;;;;;;8.35;7.20;;;;;;;33.82;33.74;98197.97;5101056;28;20036;-93
2022/07/26 10:56:56;;;;;;;8.82;7.30;;;;;;;33.53;34.38;98199.06;5102114;28;20127;-93
2022/07/26 10:59:32;;;;;;;9.40;7.60;;;;;;;33.82;33.93;98205.41;5100643;28;20071;-95
2022/07/26 11:01:58;;;;;;;9.20;7.25;;;;;;;33.93;33.04;98196.53;5104681;28;20497;-94
2022/07/26 11:04:24;;;;;;;9.75;7.57;;;;;;;34.08;33.58;98194.47;5099939;28;20050;-93
2022/07/26 11:06:50;;;;;;;10.57;7.88;;;;;;;34.10;33.43;98197.88;5102565;28;20036;-93
2022/07/26 11:09:18;;;;;;;10.88;7.60;;;;;;;34.37;33.07;98197.97;5101681;28;20032;-92
2022/07/26 11:11:45;;;;;;;10.43;7.70;;;;;;;34.32;32.52;98192.25;5103845;28;20085;-94
2022/07/26 11:14:13;;;;;;;10.10;7.30;;;;;;;34.40;32.88;98192.06;5099971;28;20040;-93
2022/07/26 11:16:42;;;;;;;9.50;7.82;;;;;;;34.48;32.55;98177.19;5098259;28;20080;-93
2022/07/26 11:19:13;;;;;;;10.55;7.90;;;;;;;34.81;32.11;98180.06;5103128;28;20428;-94
2022/07/26 11:21:40;;;;;;;11.35;8.05;;;;;;;34.89;32.91;98168.78;5104260;28;20503;-95
2022/07/26 11:24:06;;;;;;;11.77;7.70;;;;;;;34.90;32.45;98167.72;5097054;28;20865;-92
2022/07/26 11:26:39;;;;;;;9.02;7.60;;;;;;;35.00;31.63;98177.50;5100640;28;20152;-94
2022/07/26 11:29:05;;;;;;;10.57;7.55;;;;;;;34.62;31.71;98172.56;5096683;28;20039;-94
2022/07/26 11:31:36;;;;;;;9.63;7.32;;;;;;;34.44;31.76;98154.69;5101067;28;20067;-92
2022/07/26 11:34:04;;;;;;;12.45;7.85;;;;;;;33.69;32.88;98168.41;5099913;28;20064;-94
2022/07/26 11:36:35;;;;;;;11.32;7.88;;;;;;;33.38;33.38;98174.38;5101269;28;20043;-96